createdAt,value
2023-04-04T00:03:56.231Z,6.3
2023-04-04T00:09:47.881Z,6.3
2023-04-04T00:15:24.569Z,6.4
2023-04-04T00:21:01.477Z,6.4
2023-04-04T00:26:53.595Z,6.4
2023-04-04T00:32:45.266Z,6.4
2023-04-04T00:38:21.247Z,6.4
2023-04-04T00:44:12.631Z,6.4
2023-04-04T00:49:50.122Z,6.4
2023-04-04T00:55:42.083Z,6.4
2023-04-04T01:01:34.162Z,6.4
2023-04-04T01:07:26.185Z,6.4
2023-04-04T01:13:02.201Z,6.4
2023-04-04T01:18:37.948Z,6.4
2023-04-04T01:24:13.908Z,6.5
2023-04-04T01:30:05.104Z,6.5
2023-04-04T01:35:57.078Z,6.5
2023-04-04T01:41:50.537Z,6.5
2023-04-04T01:47:27.533Z,6.5
2023-04-04T01:53:05.753Z,6.5
2023-04-04T01:58:41.988Z,6.5
2023-04-04T02:04:34.206Z,6.6
2023-04-04T02:10:10.408Z,6.5
2023-04-04T02:15:46.143Z,6.5
2023-04-04T02:21:40.625Z,6.5
2023-04-04T02:27:01.634Z,6.5
2023-04-04T02:32:53.092Z,6.5
2023-04-04T02:38:44.924Z,6.5
2023-04-04T02:44:36.437Z,6.5
2023-04-04T02:50:34.349Z,6.4
2023-04-04T02:56:26.052Z,6.4
2023-04-04T03:02:02.787Z,6.4
2023-04-04T03:07:54.916Z,6.4
2023-04-04T03:13:46.591Z,6.4
2023-04-04T03:19:23.042Z,6.4
2023-04-04T03:24:59.129Z,6.4
2023-04-04T03:30:50.634Z,6.4
2023-04-04T03:36:42.210Z,6.4
2023-04-04T03:42:34.130Z,6.4
2023-04-04T03:48:25.677Z,6.4
2023-04-04T03:54:17.071Z,6.3
2023-04-04T03:59:53.668Z,6.3
2023-04-04T04:05:47.818Z,6.3
2023-04-04T04:11:39.135Z,6.3
2023-04-04T04:17:31.028Z,6.3
2023-04-04T04:23:23.258Z,6.3
2023-04-04T04:29:14.708Z,6.3
2023-04-04T04:34:51.367Z,6.3
2023-04-04T04:40:44.718Z,6.4
2023-04-04T04:46:36.611Z,6.4
2023-04-04T04:52:29.067Z,6.5
2023-04-04T04:58:21.394Z,6.6
2023-04-04T05:04:13.933Z,6.7
2023-04-04T05:10:05.356Z,6.8
2023-04-04T05:15:57.418Z,7.1
2023-04-04T05:21:50.564Z,7.6
2023-04-04T05:27:41.443Z,7.9
2023-04-04T05:33:33.569Z,8.2
2023-04-04T05:39:26.576Z,8.9
2023-04-04T05:45:03.316Z,9.8
2023-04-04T05:50:55.563Z,10.7
2023-04-04T05:56:46.541Z,11.7
2023-04-04T06:02:39.682Z,13.2
2023-04-04T06:08:33.595Z,14.4
2023-04-04T06:14:31.143Z,14.5
2023-04-04T06:20:23.192Z,14.3
2023-04-04T06:26:15.078Z,14
2023-04-04T06:32:07.542Z,13.7
2023-04-04T06:37:59.911Z,13.8
2023-04-04T06:43:51.810Z,14.1
2023-04-04T06:49:28.274Z,14.3
2023-04-04T06:55:20.138Z,14.5
2023-04-04T07:01:12.608Z,15.3
2023-04-04T07:07:04.669Z,15.9
2023-04-04T07:13:08.893Z,16.2
2023-04-04T07:19:08.561Z,16
2023-04-04T07:24:59.804Z,15.6
2023-04-04T07:31:02.284Z,15.1
2023-04-04T07:36:54.641Z,14.6
2023-04-04T07:42:47.631Z,13.9
2023-04-04T07:48:38.692Z,13.4
2023-04-04T07:54:14.508Z,13
2023-04-04T08:00:05.908Z,12.6
2023-04-04T08:06:00.214Z,12.3
2023-04-04T08:11:52.045Z,12
2023-04-04T08:17:43.910Z,11.8
2023-04-04T08:23:35.858Z,11.8
2023-04-04T08:29:39.106Z,11.8
2023-04-04T08:35:45.350Z,11.7
2023-04-04T08:41:36.983Z,11.6
2023-04-04T08:47:29.522Z,11.6
2023-04-04T08:53:21.842Z,11.7
2023-04-04T08:59:14.174Z,11.8
2023-04-04T09:05:22.053Z,11.8
2023-04-04T09:11:16.278Z,11.9
2023-04-04T09:17:19.448Z,12.1
2023-04-04T09:23:12.053Z,12.3
2023-04-04T09:29:10.922Z,12.4
2023-04-04T09:34:49.311Z,12.4
2023-04-04T09:40:42.903Z,12.3
2023-04-04T09:46:43.869Z,12.1
2023-04-04T09:52:48.433Z,12.1
2023-04-04T09:59:16.708Z,12.3
2023-04-04T10:05:21.609Z,12.8
2023-04-04T10:11:26.675Z,13.2
2023-04-04T10:17:19.210Z,13.5
2023-04-04T10:23:23.019Z,13.9
2023-04-04T10:29:16.333Z,14.3
2023-04-04T10:35:21.442Z,14.7
2023-04-04T10:41:13.696Z,15.1
2023-04-04T10:47:20.740Z,15.7
2023-04-04T10:53:07.085Z,16.2
2023-04-04T10:58:59.196Z,16.4
2023-04-04T11:04:52.251Z,16.3
2023-04-04T11:10:51.048Z,15.9
2023-04-04T11:17:08.569Z,15.4
2023-04-04T11:23:17.157Z,15.1
2023-04-04T11:29:09.651Z,14.8
2023-04-04T11:35:13.591Z,14.5
2023-04-04T11:41:07.247Z,14.2
2023-04-04T11:46:59.076Z,13.9
2023-04-04T11:52:35.110Z,13.7
2023-04-04T11:58:29.775Z,13.5
2023-04-04T12:04:29.973Z,13.3
2023-04-04T12:10:21.870Z,13
2023-04-04T12:16:27.693Z,12.8
2023-04-04T12:22:21.806Z,12.4
2023-04-04T12:28:14.019Z,12.1
2023-04-04T12:34:06.084Z,11.9
2023-04-04T12:39:58.612Z,11.8
2023-04-04T12:45:50.426Z,11.6
2023-04-04T12:51:42.752Z,11.5
2023-04-04T12:57:59.412Z,11.3
2023-04-04T13:03:54.753Z,11.1
2023-04-04T13:09:47.000Z,10.9
2023-04-04T13:15:25.955Z,10.8
2023-04-04T13:21:18.319Z,10.7
2023-04-04T13:27:10.029Z,10.5
2023-04-04T13:33:02.851Z,10.4
2023-04-04T13:38:55.228Z,10.1
2023-04-04T13:44:46.557Z,9.9
2023-04-04T13:50:40.574Z,9.8
2023-04-04T13:56:55.902Z,9.6
2023-04-04T14:02:48.757Z,9.3
2023-04-04T14:09:01.045Z,9.1
2023-04-04T14:14:54.389Z,9
2023-04-04T14:20:47.717Z,8.8
2023-04-04T14:26:39.033Z,8.6
2023-04-04T14:32:16.172Z,8.3
2023-04-04T14:38:11.496Z,8.1
2023-04-04T14:44:03.047Z,7.8
2023-04-04T14:49:56.049Z,7.4
2023-04-04T14:55:47.970Z,7.1
2023-04-04T15:01:58.430Z,6.9
2023-04-04T15:07:54.227Z,6.6
2023-04-04T15:13:31.275Z,6.3
2023-04-04T15:19:08.026Z,6.1
2023-04-04T15:25:00.365Z,5.9
2023-04-04T15:30:54.084Z,5.7
2023-04-04T15:36:48.624Z,5.4
2023-04-04T15:42:46.431Z,5.3
2023-04-04T15:48:23.169Z,5.1
2023-04-04T15:54:14.479Z,4.9
2023-04-04T16:00:07.576Z,4.8
2023-04-04T16:06:00.289Z,4.6
2023-04-04T16:11:52.691Z,4.4
2023-04-04T16:17:47.828Z,4.3
2023-04-04T16:23:39.306Z,4.1
2023-04-04T16:29:30.926Z,3.9
2023-04-04T16:35:09.033Z,3.8
2023-04-04T16:40:48.644Z,3.6
2023-04-04T16:46:45.657Z,3.4
2023-04-04T16:52:42.174Z,3.2
2023-04-04T16:58:37.424Z,3
2023-04-04T17:04:35.639Z,2.8
2023-04-04T17:10:37.027Z,2.6
2023-04-04T17:16:36.381Z,2.5
2023-04-04T17:22:21.644Z,2.3
2023-04-04T17:28:07.460Z,2.2
2023-04-04T17:34:07.800Z,2.1
2023-04-04T17:39:51.518Z,1.9
2023-04-04T17:45:36.232Z,1.8
2023-04-04T17:51:21.298Z,1.7
2023-04-04T17:57:08.278Z,1.6
2023-04-04T18:03:10.212Z,1.4
2023-04-04T18:09:06.768Z,1.4
2023-04-04T18:15:07.154Z,1.3
2023-04-04T18:21:27.464Z,1.2
2023-04-04T18:27:27.819Z,1.1
2023-04-04T18:33:27.832Z,1
2023-04-04T18:39:10.952Z,0.9
2023-04-04T18:45:11.280Z,0.9
2023-04-04T18:51:06.816Z,0.8
2023-04-04T18:57:07.644Z,0.7
2023-04-04T19:03:09.932Z,0.6
2023-04-04T19:09:12.170Z,0.6
2023-04-04T19:15:14.850Z,0.6
2023-04-04T19:21:14.897Z,0.5
2023-04-04T19:27:00.134Z,0.4
2023-04-04T19:33:01.889Z,0.4
2023-04-04T19:39:01.994Z,0.4
2023-04-04T19:45:03.292Z,0.3
2023-04-04T19:51:04.985Z,0.3
2023-04-04T19:57:05.995Z,0.3
2023-04-04T20:03:17.368Z,0.2
2023-04-04T20:09:18.086Z,0.2
2023-04-04T20:15:17.812Z,0.1
2023-04-04T20:21:19.355Z,0.1
2023-04-04T20:27:04.908Z,0.1
2023-04-04T20:33:04.464Z,0.1
2023-04-04T20:39:06.462Z,0.1
2023-04-04T20:45:06.064Z,0
2023-04-04T20:51:07.342Z,0
2023-04-04T20:56:51.846Z,-0.1
2023-04-04T21:02:55.085Z,-0.1
2023-04-04T21:08:55.758Z,-0.1
2023-04-04T21:14:38.879Z,-0.1
2023-04-04T21:20:38.933Z,-0.1
2023-04-04T21:26:39.845Z,-0.1
2023-04-04T21:32:38.989Z,-0.2
2023-04-04T21:38:36.232Z,-0.2
2023-04-04T21:44:30.419Z,-0.2
2023-04-04T21:50:24.585Z,-0.2
2023-04-04T21:56:17.875Z,-0.3
2023-04-04T22:02:10.772Z,-0.3
2023-04-04T22:07:55.945Z,-0.3
2023-04-04T22:13:50.832Z,-0.3
2023-04-04T22:19:42.964Z,-0.3
2023-04-04T22:25:34.311Z,-0.3
2023-04-04T22:31:24.971Z,-0.3
2023-04-04T22:37:17.151Z,-0.3
2023-04-04T22:43:09.334Z,-0.3
2023-04-04T22:48:46.056Z,-0.3
2023-04-04T22:54:39.013Z,-0.3
2023-04-04T23:00:30.723Z,-0.4
2023-04-04T23:06:22.671Z,-0.4
2023-04-04T23:11:59.651Z,-0.4
2023-04-04T23:17:51.390Z,-0.4
2023-04-04T23:23:43.274Z,-0.4
2023-04-04T23:29:34.990Z,-0.4
2023-04-04T23:35:26.748Z,-0.4
2023-04-04T23:41:18.590Z,-0.4
2023-04-04T23:47:10.389Z,-0.4
2023-04-04T23:52:31.448Z,-0.4
2023-04-04T23:58:23.397Z,-0.4
